sensor_id;sensor_type;location;lat;lon;timestamp;pressure;altitude;pressure_sealevel;temperature;humidity
34658;BME280;20865;43.312;27.152;2022-11-24T00:01:25;99414.95;;;16.51;48.67
34658;BME280;20865;43.312;27.152;2022-11-24T00:03:45;99411.97;;;16.48;48.91
34658;BME280;20865;43.312;27.152;2022-11-24T00:06:14;99407.14;;;16.53;49.19
34658;BME280;20865;43.312;27.152;2022-11-24T00:08:43;99415.39;;;16.57;49.27
34658;BME280;20865;43.312;27.152;2022-11-24T00:11:22;99414.98;;;16.63;49.20
34658;BME280;20865;43.312;27.152;2022-11-24T00:13:51;99412.45;;;16.67;48.91
34658;BME280;20865;43.312;27.152;2022-11-24T00:16:22;99413.47;;;16.72;48.93
34658;BME280;20865;43.312;27.152;2022-11-24T00:18:51;99411.08;;;16.75;49.05
34658;BME280;20865;43.312;27.152;2022-11-24T00:21:20;99418.19;;;16.76;49.35
34658;BME280;20865;43.312;27.152;2022-11-24T00:23:48;99414.30;;;16.80;49.34
34658;BME280;20865;43.312;27.152;2022-11-24T00:26:24;99416.91;;;16.81;49.39
34658;BME280;20865;43.312;27.152;2022-11-24T00:28:48;99413.12;;;16.84;49.49
34658;BME280;20865;43.312;27.152;2022-11-24T00:31:28;99413.12;;;16.84;49.45
34658;BME280;20865;43.312;27.152;2022-11-24T00:33:57;99405.67;;;16.87;49.58
34658;BME280;20865;43.312;27.152;2022-11-24T00:36:27;99407.42;;;16.88;49.67
34658;BME280;20865;43.312;27.152;2022-11-24T00:39:00;99415.61;;;16.87;49.76
34658;BME280;20865;43.312;27.152;2022-11-24T00:41:29;99420.27;;;16.85;49.88
34658;BME280;20865;43.312;27.152;2022-11-24T00:43:58;99414.01;;;16.84;50.15
34658;BME280;20865;43.312;27.152;2022-11-24T00:46:26;99418.70;;;16.88;50.23
34658;BME280;20865;43.312;27.152;2022-11-24T00:48:54;99430.44;;;16.87;50.26
34658;BME280;20865;43.312;27.152;2022-11-24T00:51:24;99430.23;;;16.90;50.49
34658;BME280;20865;43.312;27.152;2022-11-24T00:53:53;99425.48;;;16.94;50.41
34658;BME280;20865;43.312;27.152;2022-11-24T00:56:22;99418.25;;;16.94;50.33
34658;BME280;20865;43.312;27.152;2022-11-24T00:58:50;99417.17;;;16.97;50.14
34658;BME280;20865;43.312;27.152;2022-11-24T01:01:20;99416.31;;;16.96;50.00
34658;BME280;20865;43.312;27.152;2022-11-24T01:03:48;99418.44;;;16.98;49.70
34658;BME280;20865;43.312;27.152;2022-11-24T01:06:18;99423.70;;;16.87;49.76
34658;BME280;20865;43.312;27.152;2022-11-24T01:08:47;99424.74;;;16.92;49.70
34658;BME280;20865;43.312;27.152;2022-11-24T01:13:47;99417.86;;;16.80;50.18
34658;BME280;20865;43.312;27.152;2022-11-24T01:16:29;99421.91;;;16.80;50.14
34658;BME280;20865;43.312;27.152;2022-11-24T01:18:57;99417.98;;;16.79;50.03
34658;BME280;20865;43.312;27.152;2022-11-24T01:21:25;99412.09;;;16.79;50.13
34658;BME280;20865;43.312;27.152;2022-11-24T01:23:53;99418.96;;;16.78;49.78
34658;BME280;20865;43.312;27.152;2022-11-24T01:26:21;99413.83;;;16.73;49.99
34658;BME280;20865;43.312;27.152;2022-11-24T01:28:53;99416.91;;;16.81;49.78
34658;BME280;20865;43.312;27.152;2022-11-24T01:31:22;99418.52;;;16.84;49.57
34658;BME280;20865;43.312;27.152;2022-11-24T01:33:50;99411.96;;;16.88;49.63
34658;BME280;20865;43.312;27.152;2022-11-24T01:36:18;99412.22;;;16.78;49.93
34658;BME280;20865;43.312;27.152;2022-11-24T01:38:46;99412.20;;;16.90;49.53
34658;BME280;20865;43.312;27.152;2022-11-24T01:41:16;99414.69;;;16.94;49.33
34658;BME280;20865;43.312;27.152;2022-11-24T01:43:45;99418.59;;;17.02;49.08
34658;BME280;20865;43.312;27.152;2022-11-24T01:46:33;99419.27;;;17.11;48.93
34658;BME280;20865;43.312;27.152;2022-11-24T01:49:20;99424.79;;;17.10;49.04
34658;BME280;20865;43.312;27.152;2022-11-24T01:51:56;99420.03;;;17.01;49.29
34658;BME280;20865;43.312;27.152;2022-11-24T01:54:32;99418.80;;;16.99;49.35
34658;BME280;20865;43.312;27.152;2022-11-24T01:57:02;99421.14;;;16.98;49.52
34658;BME280;20865;43.312;27.152;2022-11-24T01:59:30;99413.51;;;17.10;49.04
34658;BME280;20865;43.312;27.152;2022-11-24T02:01:59;99412.86;;;17.07;49.05
34658;BME280;20865;43.312;27.152;2022-11-24T02:04:28;99415.13;;;17.00;48.92
34658;BME280;20865;43.312;27.152;2022-11-24T02:06:58;99416.97;;;17.00;49.03
34658;BME280;20865;43.312;27.152;2022-11-24T02:12:15;99415.83;;;16.97;49.43
34658;BME280;20865;43.312;27.152;2022-11-24T02:14:44;99411.45;;;17.01;49.32
34658;BME280;20865;43.312;27.152;2022-11-24T02:17:12;99418.19;;;17.01;49.43
34658;BME280;20865;43.312;27.152;2022-11-24T02:19:47;99417.98;;;17.04;49.45
34658;BME280;20865;43.312;27.152;2022-11-24T02:22:20;99405.99;;;17.08;49.17
34658;BME280;20865;43.312;27.152;2022-11-24T02:24:50;99404.28;;;17.07;49.30
34658;BME280;20865;43.312;27.152;2022-11-24T02:27:18;99404.34;;;17.00;49.47
34658;BME280;20865;43.312;27.152;2022-11-24T02:29:47;99405.69;;;17.00;49.56
34658;BME280;20865;43.312;27.152;2022-11-24T02:32:15;99414.64;;;17.01;49.58
34658;BME280;20865;43.312;27.152;2022-11-24T02:34:44;99415.77;;;17.04;49.47
34658;BME280;20865;43.312;27.152;2022-11-24T02:37:12;99409.15;;;17.02;49.60
34658;BME280;20865;43.312;27.152;2022-11-24T02:39:40;99408.66;;;17.03;49.71
34658;BME280;20865;43.312;27.152;2022-11-24T02:42:09;99406.45;;;17.02;49.70
34658;BME280;20865;43.312;27.152;2022-11-24T02:44:40;99406.70;;;17.05;49.98
34658;BME280;20865;43.312;27.152;2022-11-24T02:47:10;99406.39;;;17.09;49.91
34658;BME280;20865;43.312;27.152;2022-11-24T02:49:38;99407.25;;;17.10;49.85
34658;BME280;20865;43.312;27.152;2022-11-24T02:52:06;99401.58;;;17.07;49.86
34658;BME280;20865;43.312;27.152;2022-11-24T02:54:34;99406.82;;;17.03;49.77
34658;BME280;20865;43.312;27.152;2022-11-24T02:57:01;99407.59;;;17.05;49.85
34658;BME280;20865;43.312;27.152;2022-11-24T02:59:29;99408.81;;;17.07;49.87
34658;BME280;20865;43.312;27.152;2022-11-24T03:01:57;99410.66;;;17.06;49.86
34658;BME280;20865;43.312;27.152;2022-11-24T03:04:25;99409.88;;;17.04;50.04
34658;BME280;20865;43.312;27.152;2022-11-24T03:06:52;99410.50;;;17.02;49.74
34658;BME280;20865;43.312;27.152;2022-11-24T03:09:20;99406.66;;;16.99;49.76
34658;BME280;20865;43.312;27.152;2022-11-24T03:11:47;99411.36;;;17.03;49.89
34658;BME280;20865;43.312;27.152;2022-11-24T03:14:15;99409.80;;;17.06;50.00
34658;BME280;20865;43.312;27.152;2022-11-24T03:16:42;99413.63;;;17.09;50.09
34658;BME280;20865;43.312;27.152;2022-11-24T03:19:10;99410.44;;;17.09;50.19
34658;BME280;20865;43.312;27.152;2022-11-24T03:21:38;99420.74;;;17.10;50.16
34658;BME280;20865;43.312;27.152;2022-11-24T03:24:05;99420.38;;;17.09;50.19
34658;BME280;20865;43.312;27.152;2022-11-24T03:26:33;99425.53;;;17.25;49.67
34658;BME280;20865;43.312;27.152;2022-11-24T03:29:01;99429.75;;;17.03;49.85
34658;BME280;20865;43.312;27.152;2022-11-24T03:31:29;99428.13;;;17.01;49.64
34658;BME280;20865;43.312;27.152;2022-11-24T03:33:57;99428.13;;;17.01;49.65
34658;BME280;20865;43.312;27.152;2022-11-24T03:36:24;99430.83;;;17.01;50.08
34658;BME280;20865;43.312;27.152;2022-11-24T03:38:52;99436.23;;;16.88;50.25
34658;BME280;20865;43.312;27.152;2022-11-24T03:41:20;99438.91;;;17.01;50.11
34658;BME280;20865;43.312;27.152;2022-11-24T03:43:47;99441.62;;;16.88;50.58
34658;BME280;20865;43.312;27.152;2022-11-24T03:46:15;99447.48;;;16.87;50.80
34658;BME280;20865;43.312;27.152;2022-11-24T03:48:42;99442.66;;;17.05;50.61
34658;BME280;20865;43.312;27.152;2022-11-24T03:51:11;99445.98;;;17.22;50.28
34658;BME280;20865;43.312;27.152;2022-11-24T03:53:38;99455.05;;;17.08;50.74
34658;BME280;20865;43.312;27.152;2022-11-24T03:56:06;99446.44;;;17.16;50.71
34658;BME280;20865;43.312;27.152;2022-11-24T03:58:34;99444.11;;;17.17;50.82
34658;BME280;20865;43.312;27.152;2022-11-24T04:01:02;99443.90;;;17.20;50.71
34658;BME280;20865;43.312;27.152;2022-11-24T04:03:29;99442.92;;;17.21;50.88
34658;BME280;20865;43.312;27.152;2022-11-24T04:05:57;99446.27;;;17.24;50.83
34658;BME280;20865;43.312;27.152;2022-11-24T04:08:24;99446.54;;;17.27;50.77
34658;BME280;20865;43.312;27.152;2022-11-24T04:10:53;99451.87;;;17.21;51.03
34658;BME280;20865;43.312;27.152;2022-11-24T04:13:23;99450.64;;;17.20;51.25
34658;BME280;20865;43.312;27.152;2022-11-24T04:15:51;99447.55;;;17.19;51.38
34658;BME280;20865;43.312;27.152;2022-11-24T04:18:18;99453.13;;;17.23;51.41
34658;BME280;20865;43.312;27.152;2022-11-24T04:20:50;99458.28;;;17.26;51.40
34658;BME280;20865;43.312;27.152;2022-11-24T04:23:18;99455.28;;;17.30;51.37
34658;BME280;20865;43.312;27.152;2022-11-24T04:25:46;99456.14;;;17.31;51.34
34658;BME280;20865;43.312;27.152;2022-11-24T04:28:14;99467.15;;;17.28;51.45
34658;BME280;20865;43.312;27.152;2022-11-24T04:30:42;99469.36;;;17.41;51.13
34658;BME280;20865;43.312;27.152;2022-11-24T04:33:10;99472.21;;;17.45;50.91
34658;BME280;20865;43.312;27.152;2022-11-24T04:35:37;99477.03;;;17.47;50.83
34658;BME280;20865;43.312;27.152;2022-11-24T04:38:05;99492.83;;;17.46;50.91
34658;BME280;20865;43.312;27.152;2022-11-24T04:40:32;99501.44;;;17.33;50.60
34658;BME280;20865;43.312;27.152;2022-11-24T04:43:00;99501.44;;;17.33;50.19
34658;BME280;20865;43.312;27.152;2022-11-24T04:45:28;99511.03;;;17.24;49.80
34658;BME280;20865;43.312;27.152;2022-11-24T04:47:55;99508.65;;;17.07;50.05
34658;BME280;20865;43.312;27.152;2022-11-24T04:50:23;99510.69;;;17.03;50.21
34658;BME280;20865;43.312;27.152;2022-11-24T04:52:50;99512.62;;;17.01;50.24
34658;BME280;20865;43.312;27.152;2022-11-24T04:55:18;99515.77;;;16.95;50.42
34658;BME280;20865;43.312;27.152;2022-11-24T04:57:45;99526.77;;;16.92;50.40
34658;BME280;20865;43.312;27.152;2022-11-24T05:00:14;99520.42;;;16.86;50.54
34658;BME280;20865;43.312;27.152;2022-11-24T05:02:41;99523.20;;;16.92;50.67
34658;BME280;20865;43.312;27.152;2022-11-24T05:05:09;99530.44;;;16.91;50.78
34658;BME280;20865;43.312;27.152;2022-11-24T05:07:37;99524.06;;;16.92;50.79
34658;BME280;20865;43.312;27.152;2022-11-24T05:10:05;99541.77;;;16.96;51.05
34658;BME280;20865;43.312;27.152;2022-11-24T05:12:55;99536.98;;;17.07;50.81
34658;BME280;20865;43.312;27.152;2022-11-24T05:15:23;99535.09;;;17.02;51.08
34658;BME280;20865;43.312;27.152;2022-11-24T05:17:51;99544.42;;;17.03;51.03
34658;BME280;20865;43.312;27.152;2022-11-24T05:20:19;99547.00;;;17.05;51.19
34658;BME280;20865;43.312;27.152;2022-11-24T05:22:47;99544.30;;;17.05;51.16
34658;BME280;20865;43.312;27.152;2022-11-24T05:25:14;99551.94;;;17.05;51.02
34658;BME280;20865;43.312;27.152;2022-11-24T05:27:42;99552.80;;;17.06;50.89
34658;BME280;20865;43.312;27.152;2022-11-24T05:30:10;99548.84;;;17.04;50.80
34658;BME280;20865;43.312;27.152;2022-11-24T05:32:38;99559.37;;;17.02;50.86
34658;BME280;20865;43.312;27.152;2022-11-24T05:35:06;99559.37;;;17.02;50.87
34658;BME280;20865;43.312;27.152;2022-11-24T05:37:35;99563.42;;;17.02;50.94
34658;BME280;20865;43.312;27.152;2022-11-24T05:40:04;99570.62;;;17.01;50.88
34658;BME280;20865;43.312;27.152;2022-11-24T05:42:32;99571.52;;;17.02;50.84
34658;BME280;20865;43.312;27.152;2022-11-24T05:45:14;99569.68;;;17.02;51.04
34658;BME280;20865;43.312;27.152;2022-11-24T05:47:42;99571.03;;;17.15;50.84
34658;BME280;20865;43.312;27.152;2022-11-24T05:50:11;99568.98;;;17.19;50.70
34658;BME280;20865;43.312;27.152;2022-11-24T05:52:39;99575.98;;;17.08;51.11
34658;BME280;20865;43.312;27.152;2022-11-24T05:55:07;99575.20;;;17.13;51.11
34658;BME280;20865;43.312;27.152;2022-11-24T05:57:35;99580.97;;;17.14;51.23
34658;BME280;20865;43.312;27.152;2022-11-24T06:00:07;99586.07;;;17.19;51.19
34658;BME280;20865;43.312;27.152;2022-11-24T06:02:33;99582.67;;;17.23;51.15
34658;BME280;20865;43.312;27.152;2022-11-24T06:05:02;99591.88;;;17.26;51.18
34658;BME280;20865;43.312;27.152;2022-11-24T06:07:30;99597.96;;;17.42;50.98
34658;BME280;20865;43.312;27.152;2022-11-24T06:09:57;99600.77;;;17.53;50.84
34658;BME280;20865;43.312;27.152;2022-11-24T06:12:25;99594.61;;;17.38;51.20
34658;BME280;20865;43.312;27.152;2022-11-24T06:14:53;99597.17;;;17.47;51.20
34658;BME280;20865;43.312;27.152;2022-11-24T06:17:20;99594.72;;;17.50;51.26
34658;BME280;20865;43.312;27.152;2022-11-24T06:19:48;99602.20;;;17.72;50.83
34658;BME280;20865;43.312;27.152;2022-11-24T06:22:17;99612.89;;;17.73;50.84
34658;BME280;20865;43.312;27.152;2022-11-24T06:24:45;99615.08;;;17.81;50.64
34658;BME280;20865;43.312;27.152;2022-11-24T06:27:15;99613.87;;;17.72;50.88
34658;BME280;20865;43.312;27.152;2022-11-24T06:29:43;99623.32;;;17.72;51.06
34658;BME280;20865;43.312;27.152;2022-11-24T06:32:12;99624.38;;;17.77;51.08
34658;BME280;20865;43.312;27.152;2022-11-24T06:34:39;99623.67;;;17.80;51.18
34658;BME280;20865;43.312;27.152;2022-11-24T06:37:07;99625.39;;;17.81;51.32
34658;BME280;20865;43.312;27.152;2022-11-24T06:39:34;99633.98;;;17.81;51.44
34658;BME280;20865;43.312;27.152;2022-11-24T06:42:02;99626.65;;;17.83;51.55
34658;BME280;20865;43.312;27.152;2022-11-24T06:44:30;99630.98;;;17.85;51.71
34658;BME280;20865;43.312;27.152;2022-11-24T06:46:58;99635.68;;;17.89;51.73
34658;BME280;20865;43.312;27.152;2022-11-24T06:49:25;99631.50;;;17.91;51.78
34658;BME280;20865;43.312;27.152;2022-11-24T06:51:54;99643.72;;;17.83;51.99
34658;BME280;20865;43.312;27.152;2022-11-24T06:54:21;99641.30;;;17.86;52.05
34658;BME280;20865;43.312;27.152;2022-11-24T06:56:54;99635.19;;;17.90;52.07
34658;BME280;20865;43.312;27.152;2022-11-24T06:59:19;99634.20;;;18.03;51.83
34658;BME280;20865;43.312;27.152;2022-11-24T07:01:47;99633.78;;;17.97;52.03
34658;BME280;20865;43.312;27.152;2022-11-24T07:04:14;99632.15;;;17.94;52.14
34658;BME280;20865;43.312;27.152;2022-11-24T07:06:42;99631.66;;;17.95;52.15
34658;BME280;20865;43.312;27.152;2022-11-24T07:09:11;99637.06;;;17.95;52.21
34658;BME280;20865;43.312;27.152;2022-11-24T07:11:40;99630.95;;;17.98;52.21
34658;BME280;20865;43.312;27.152;2022-11-24T07:14:08;99631.35;;;17.99;52.34
34658;BME280;20865;43.312;27.152;2022-11-24T07:16:38;99625.61;;;18.04;52.42
34658;BME280;20865;43.312;27.152;2022-11-24T07:19:06;99625.48;;;18.05;52.36
34658;BME280;20865;43.312;27.152;2022-11-24T07:21:33;99626.13;;;18.09;52.30
34658;BME280;20865;43.312;27.152;2022-11-24T07:24:01;99630.09;;;18.11;52.38
34658;BME280;20865;43.312;27.152;2022-11-24T07:26:28;99616.45;;;18.12;52.28
34658;BME280;20865;43.312;27.152;2022-11-24T07:28:56;99632.30;;;18.11;52.25
34658;BME280;20865;43.312;27.152;2022-11-24T07:31:24;99629.02;;;18.13;52.35
34658;BME280;20865;43.312;27.152;2022-11-24T07:33:54;99624.84;;;18.15;52.37
34658;BME280;20865;43.312;27.152;2022-11-24T07:36:22;99631.74;;;18.19;52.24
34658;BME280;20865;43.312;27.152;2022-11-24T07:38:50;99632.52;;;18.21;52.37
34658;BME280;20865;43.312;27.152;2022-11-24T07:41:19;99638.41;;;18.20;52.42
34658;BME280;20865;43.312;27.152;2022-11-24T07:43:48;99629.81;;;18.21;52.43
34658;BME280;20865;43.312;27.152;2022-11-24T07:46:18;99635.58;;;18.22;52.40
34658;BME280;20865;43.312;27.152;2022-11-24T07:48:46;99631.86;;;18.48;51.75
34658;BME280;20865;43.312;27.152;2022-11-24T07:51:14;99630.92;;;18.55;51.56
34658;BME280;20865;43.312;27.152;2022-11-24T07:53:42;99629.72;;;18.59;51.51
34658;BME280;20865;43.312;27.152;2022-11-24T07:56:10;99634.63;;;18.60;51.48
34658;BME280;20865;43.312;27.152;2022-11-24T07:58:38;99635.77;;;18.63;51.44
34658;BME280;20865;43.312;27.152;2022-11-24T08:01:13;99643.80;;;18.70;51.28
34658;BME280;20865;43.312;27.152;2022-11-24T08:03:42;99638.75;;;18.71;51.30
34658;BME280;20865;43.312;27.152;2022-11-24T08:06:10;99637.48;;;18.45;51.92
34658;BME280;20865;43.312;27.152;2022-11-24T08:08:38;99635.28;;;18.45;52.06
34658;BME280;20865;43.312;27.152;2022-11-24T08:11:11;99629.16;;;18.48;52.03
34658;BME280;20865;43.312;27.152;2022-11-24T08:13:39;99631.52;;;18.53;52.02
34658;BME280;20865;43.312;27.152;2022-11-24T08:16:09;99626.05;;;18.47;52.18
34658;BME280;20865;43.312;27.152;2022-11-24T08:18:37;99627.41;;;18.47;52.07
34658;BME280;20865;43.312;27.152;2022-11-24T08:21:05;99625.34;;;18.51;52.11
34658;BME280;20865;43.312;27.152;2022-11-24T08:23:33;99626.59;;;18.52;52.10
34658;BME280;20865;43.312;27.152;2022-11-24T08:26:06;99624.75;;;18.53;52.27
34658;BME280;20865;43.312;27.152;2022-11-24T08:28:36;99616.64;;;18.53;52.46
34658;BME280;20865;43.312;27.152;2022-11-24T08:31:05;99622.09;;;18.59;52.41
34658;BME280;20865;43.312;27.152;2022-11-24T08:33:34;99618.77;;;18.61;52.42
34658;BME280;20865;43.312;27.152;2022-11-24T08:36:10;99621.38;;;18.62;52.54
34658;BME280;20865;43.312;27.152;2022-11-24T08:38:39;99622.97;;;18.65;52.50
34658;BME280;20865;43.312;27.152;2022-11-24T08:41:09;99623.11;;;18.82;51.88
34658;BME280;20865;43.312;27.152;2022-11-24T08:43:37;99626.52;;;18.72;52.04
34658;BME280;20865;43.312;27.152;2022-11-24T08:46:10;99623.11;;;18.69;52.33
34658;BME280;20865;43.312;27.152;2022-11-24T08:48:38;99619.36;;;18.71;52.34
34658;BME280;20865;43.312;27.152;2022-11-24T08:51:09;99619.95;;;18.69;52.38
34658;BME280;20865;43.312;27.152;2022-11-24T08:53:38;99620.90;;;18.68;52.35
34658;BME280;20865;43.312;27.152;2022-11-24T08:56:07;99621.11;;;18.72;52.16
34658;BME280;20865;43.312;27.152;2022-11-24T08:58:35;99616.55;;;18.73;52.30
34658;BME280;20865;43.312;27.152;2022-11-24T09:01:05;99618.23;;;18.92;51.86
34658;BME280;20865;43.312;27.152;2022-11-24T09:03:33;99626.39;;;18.98;51.59
34658;BME280;20865;43.312;27.152;2022-11-24T09:06:01;99636.59;;;19.00;51.45
34658;BME280;20865;43.312;27.152;2022-11-24T09:08:30;99639.66;;;18.95;51.53
34658;BME280;20865;43.312;27.152;2022-11-24T09:11:06;99646.96;;;19.00;51.40
34658;BME280;20865;43.312;27.152;2022-11-24T09:13:34;99650.63;;;18.99;51.46
34658;BME280;20865;43.312;27.152;2022-11-24T09:16:10;99652.50;;;18.80;51.97
34658;BME280;20865;43.312;27.152;2022-11-24T09:18:37;99649.58;;;18.71;52.08
34658;BME280;20865;43.312;27.152;2022-11-24T09:21:20;99653.94;;;18.73;52.05
34658;BME280;20865;43.312;27.152;2022-11-24T09:23:46;99654.57;;;18.77;51.97
34658;BME280;20865;43.312;27.152;2022-11-24T09:26:16;99654.20;;;18.76;51.91
34658;BME280;20865;43.312;27.152;2022-11-24T09:28:44;99656.92;;;18.69;51.98
34658;BME280;20865;43.312;27.152;2022-11-24T09:31:14;99658.48;;;18.73;51.79
34658;BME280;20865;43.312;27.152;2022-11-24T09:33:42;99669.67;;;18.74;51.81
34658;BME280;20865;43.312;27.152;2022-11-24T09:36:11;99665.13;;;18.74;51.92
34658;BME280;20865;43.312;27.152;2022-11-24T09:38:39;99668.09;;;18.77;51.98
34658;BME280;20865;43.312;27.152;2022-11-24T09:51:57;99667.09;;;18.72;51.46
34658;BME280;20865;43.312;27.152;2022-11-24T09:54:28;99677.70;;;18.68;51.51
34658;BME280;20865;43.312;27.152;2022-11-24T09:56:58;99673.78;;;18.67;51.37
34658;BME280;20865;43.312;27.152;2022-11-24T09:59:27;99675.86;;;18.69;51.30
34658;BME280;20865;43.312;27.152;2022-11-24T10:01:55;99686.31;;;18.68;51.13
34658;BME280;20865;43.312;27.152;2022-11-24T10:04:33;99681.75;;;18.63;50.97
34658;BME280;20865;43.312;27.152;2022-11-24T10:12:26;99685.33;;;18.50;50.86
34658;BME280;20865;43.312;27.152;2022-11-24T10:15:15;99683.61;;;18.49;50.60
34658;BME280;20865;43.312;27.152;2022-11-24T10:17:45;99695.55;;;18.34;50.67
34658;BME280;20865;43.312;27.152;2022-11-24T10:20:40;99694.19;;;18.34;50.53
34658;BME280;20865;43.312;27.152;2022-11-24T10:26:04;99707.22;;;18.22;49.99
34658;BME280;20865;43.312;27.152;2022-11-24T10:28:45;99709.06;;;18.21;49.72
34658;BME280;20865;43.312;27.152;2022-11-24T10:31:23;99703.01;;;18.18;49.62
34658;BME280;20865;43.312;27.152;2022-11-24T10:33:47;99706.84;;;18.08;49.46
34658;BME280;20865;43.312;27.152;2022-11-24T10:36:22;99704.14;;;18.08;49.44
34658;BME280;20865;43.312;27.152;2022-11-24T10:38:56;99705.48;;;18.08;49.38
34658;BME280;20865;43.312;27.152;2022-11-24T10:41:36;99708.52;;;18.03;49.30
34658;BME280;20865;43.312;27.152;2022-11-24T10:43:57;99709.66;;;18.06;49.44
34658;BME280;20865;43.312;27.152;2022-11-24T10:46:26;99714.14;;;18.00;49.34
34658;BME280;20865;43.312;27.152;2022-11-24T10:48:57;99717.70;;;18.01;49.48
34658;BME280;20865;43.312;27.152;2022-11-24T10:54:16;99720.98;;;17.99;49.28
34658;BME280;20865;43.312;27.152;2022-11-24T10:56:45;99721.63;;;18.02;49.27
34658;BME280;20865;43.312;27.152;2022-11-24T11:01:50;99719.75;;;17.97;49.03
34658;BME280;20865;43.312;27.152;2022-11-24T11:04:20;99726.14;;;17.96;49.01
34658;BME280;20865;43.312;27.152;2022-11-24T11:06:48;99724.73;;;18.03;48.98
34658;BME280;20865;43.312;27.152;2022-11-24T11:09:18;99732.73;;;17.92;49.09
34658;BME280;20865;43.312;27.152;2022-11-24T11:11:46;99734.41;;;18.00;49.13
34658;BME280;20865;43.312;27.152;2022-11-24T11:14:32;99730.03;;;17.92;49.03
34658;BME280;20865;43.312;27.152;2022-11-24T11:17:02;99736.10;;;17.89;49.13
34658;BME280;20865;43.312;27.152;2022-11-24T11:19:44;99740.39;;;17.85;49.22
34658;BME280;20865;43.312;27.152;2022-11-24T11:22:26;99744.81;;;17.87;49.36
34658;BME280;20865;43.312;27.152;2022-11-24T11:27:39;99752.22;;;17.90;49.25
34658;BME280;20865;43.312;27.152;2022-11-24T11:30:22;99754.67;;;18.00;48.56
34658;BME280;20865;43.312;27.152;2022-11-24T11:32:57;99753.27;;;17.75;48.72
34658;BME280;20865;43.312;27.152;2022-11-24T11:35:27;99761.56;;;17.72;48.70
34658;BME280;20865;43.312;27.152;2022-11-24T11:37:58;99758.95;;;17.70;48.19
34658;BME280;20865;43.312;27.152;2022-11-24T11:40:31;99759.14;;;17.54;48.13
34658;BME280;20865;43.312;27.152;2022-11-24T11:43:11;99759.63;;;17.54;48.09
34658;BME280;20865;43.312;27.152;2022-11-24T11:45:40;99760.05;;;17.60;48.01
34658;BME280;20865;43.312;27.152;2022-11-24T11:48:31;99759.19;;;17.60;47.99
34658;BME280;20865;43.312;27.152;2022-11-24T11:56:46;99765.69;;;17.57;48.12
34658;BME280;20865;43.312;27.152;2022-11-24T11:59:40;99760.05;;;17.60;47.92
34658;BME280;20865;43.312;27.152;2022-11-24T12:04:56;99761.81;;;17.61;47.94
34658;BME280;20865;43.312;27.152;2022-11-24T12:15:55;99765.89;;;17.54;47.62
34658;BME280;20865;43.312;27.152;2022-11-24T12:18:48;99762.62;;;17.49;47.61
34658;BME280;20865;43.312;27.152;2022-11-24T12:21:18;99767.07;;;17.50;47.94
34658;BME280;20865;43.312;27.152;2022-11-24T12:23:57;99761.67;;;17.50;48.05
34658;BME280;20865;43.312;27.152;2022-11-24T12:26:54;99769.97;;;17.47;47.79
34658;BME280;20865;43.312;27.152;2022-11-24T12:32:33;99771.87;;;16.91;48.59
34658;BME280;20865;43.312;27.152;2022-11-24T12:43:34;99766.46;;;16.84;48.20
34658;BME280;20865;43.312;27.152;2022-11-24T12:46:14;99764.66;;;16.84;48.42
34658;BME280;20865;43.312;27.152;2022-11-24T12:51:50;99758.64;;;16.94;48.76
34658;BME280;20865;43.312;27.152;2022-11-24T12:54:19;99752.50;;;16.92;48.75
34658;BME280;20865;43.312;27.152;2022-11-24T13:02:45;99753.83;;;16.99;48.74
34658;BME280;20865;43.312;27.152;2022-11-24T13:05:21;99750.16;;;17.00;48.88
34658;BME280;20865;43.312;27.152;2022-11-24T13:07:58;99760.47;;;17.00;48.73
34658;BME280;20865;43.312;27.152;2022-11-24T13:10:37;99765.36;;;17.08;48.98
34658;BME280;20865;43.312;27.152;2022-11-24T13:13:06;99759.77;;;17.11;49.28
34658;BME280;20865;43.312;27.152;2022-11-24T13:18:44;99760.38;;;17.29;49.23
34658;BME280;20865;43.312;27.152;2022-11-24T13:21:44;99763.08;;;17.29;49.26
34658;BME280;20865;43.312;27.152;2022-11-24T13:24:05;99769.80;;;17.36;49.14
34658;BME280;20865;43.312;27.152;2022-11-24T13:26:48;99775.86;;;17.39;48.86
34658;BME280;20865;43.312;27.152;2022-11-24T13:29:37;99773.82;;;17.43;48.90
34658;BME280;20865;43.312;27.152;2022-11-24T13:39:53;99777.47;;;17.49;48.95
34658;BME280;20865;43.312;27.152;2022-11-24T13:42:22;99776.53;;;17.50;48.96
34658;BME280;20865;43.312;27.152;2022-11-24T13:45:00;99783.53;;;17.53;48.85
34658;BME280;20865;43.312;27.152;2022-11-24T13:50:05;99775.20;;;17.63;48.61
34658;BME280;20865;43.312;27.152;2022-11-24T13:57:50;99773.92;;;17.69;48.57
34658;BME280;20865;43.312;27.152;2022-11-24T14:00:32;99772.37;;;17.72;48.47
34658;BME280;20865;43.312;27.152;2022-11-24T14:03:16;99764.67;;;17.66;48.38
34658;BME280;20865;43.312;27.152;2022-11-24T14:05:48;99779.82;;;17.68;48.22
34658;BME280;20865;43.312;27.152;2022-11-24T14:08:27;99780.91;;;17.58;48.40
34658;BME280;20865;43.312;27.152;2022-11-24T14:10:57;99774.62;;;17.65;48.30
34658;BME280;20865;43.312;27.152;2022-11-24T14:13:30;99784.93;;;17.66;48.15
34658;BME280;20865;43.312;27.152;2022-11-24T14:16:00;99772.86;;;17.64;47.86
34658;BME280;20865;43.312;27.152;2022-11-24T14:18:29;99779.36;;;17.61;47.90
34658;BME280;20865;43.312;27.152;2022-11-24T14:23:57;99784.16;;;17.63;47.64
34658;BME280;20865;43.312;27.152;2022-11-24T14:26:31;99790.45;;;17.57;47.48
34658;BME280;20865;43.312;27.152;2022-11-24T14:29:11;99792.01;;;17.61;47.34
34658;BME280;20865;43.312;27.152;2022-11-24T14:31:35;99794.42;;;17.58;47.28
34658;BME280;20865;43.312;27.152;2022-11-24T14:34:15;99797.29;;;17.62;47.00
34658;BME280;20865;43.312;27.152;2022-11-24T14:36:44;99804.41;;;17.63;46.34
34658;BME280;20865;43.312;27.152;2022-11-24T14:39:14;99799.33;;;17.59;46.07